sensor_id;sensor_type;location;lat;lon;timestamp;pressure;altitude;pressure_sealevel;temperature;humidity
69751;BME280;57335;52.288;6.056;2023-02-23T00:01:24;101287.28;;;7.57;100.00
69751;BME280;57335;52.288;6.056;2023-02-23T00:03:56;101290.34;;;7.61;100.00
69751;BME280;57335;52.288;6.056;2023-02-23T00:06:25;101283.31;;;7.62;100.00
69751;BME280;57335;52.288;6.056;2023-02-23T00:08:52;101289.00;;;7.65;100.00
69751;BME280;57335;52.288;6.056;2023-02-23T00:11:19;101286.41;;;7.65;100.00
69751;BME280;57335;52.288;6.056;2023-02-23T00:13:48;101296.66;;;7.67;100.00
69751;BME280;57335;52.288;6.056;2023-02-23T00:16:17;101288.66;;;7.68;100.00
69751;BME280;57335;52.288;6.056;2023-02-23T00:18:46;101286.69;;;7.70;100.00
69751;BME280;57335;52.288;6.056;2023-02-23T00:21:15;101286.53;;;7.72;100.00
69751;BME280;57335;52.288;6.056;2023-02-23T00:23:54;101294.00;;;7.75;100.00
69751;BME280;57335;52.288;6.056;2023-02-23T00:26:22;101290.41;;;7.76;100.00
69751;BME280;57335;52.288;6.056;2023-02-23T00:28:49;101288.78;;;7.75;100.00
69751;BME280;57335;52.288;6.056;2023-02-23T00:31:16;101282.38;;;7.77;100.00
69751;BME280;57335;52.288;6.056;2023-02-23T00:33:43;101279.13;;;7.75;100.00
69751;BME280;57335;52.288;6.056;2023-02-23T00:36:13;101279.13;;;7.75;100.00
69751;BME280;57335;52.288;6.056;2023-02-23T00:38:40;101268.38;;;7.78;100.00
69751;BME280;57335;52.288;6.056;2023-02-23T00:41:09;101273.59;;;7.78;100.00
69751;BME280;57335;52.288;6.056;2023-02-23T00:43:40;101269.97;;;7.79;100.00
69751;BME280;57335;52.288;6.056;2023-02-23T00:46:09;101274.38;;;7.79;100.00
69751;BME280;57335;52.288;6.056;2023-02-23T00:48:35;101275.81;;;7.82;100.00
69751;BME280;57335;52.288;6.056;2023-02-23T00:51:03;101278.44;;;7.82;100.00
69751;BME280;57335;52.288;6.056;2023-02-23T00:53:31;101286.47;;;7.80;100.00
69751;BME280;57335;52.288;6.056;2023-02-23T00:55:57;101277.16;;;7.77;100.00
69751;BME280;57335;52.288;6.056;2023-02-23T00:58:25;101281.25;;;7.80;100.00
69751;BME280;57335;52.288;6.056;2023-02-23T01:00:52;101282.22;;;7.79;100.00
69751;BME280;57335;52.288;6.056;2023-02-23T01:03:19;101283.00;;;7.79;100.00
69751;BME280;57335;52.288;6.056;2023-02-23T01:05:45;101277.78;;;7.79;100.00
69751;BME280;57335;52.288;6.056;2023-02-23T01:08:11;101274.56;;;7.77;100.00
69751;BME280;57335;52.288;6.056;2023-02-23T01:10:39;101275.38;;;7.78;100.00
69751;BME280;57335;52.288;6.056;2023-02-23T01:13:05;101271.94;;;7.77;100.00
69751;BME280;57335;52.288;6.056;2023-02-23T01:15:32;101279.59;;;7.79;100.00
69751;BME280;57335;52.288;6.056;2023-02-23T01:17:58;101284.66;;;7.81;100.00
69751;BME280;57335;52.288;6.056;2023-02-23T01:20:24;101283.38;;;7.76;100.00
69751;BME280;57335;52.288;6.056;2023-02-23T01:22:52;101285.63;;;7.79;100.00
69751;BME280;57335;52.288;6.056;2023-02-23T01:25:19;101283.22;;;7.78;100.00
69751;BME280;57335;52.288;6.056;2023-02-23T01:27:45;101280.78;;;7.76;100.00
69751;BME280;57335;52.288;6.056;2023-02-23T01:30:14;101287.59;;;7.77;100.00
69751;BME280;57335;52.288;6.056;2023-02-23T01:32:40;101285.19;;;7.76;100.00
69751;BME280;57335;52.288;6.056;2023-02-23T01:35:08;101287.16;;;7.74;100.00
69751;BME280;57335;52.288;6.056;2023-02-23T01:37:37;101289.13;;;7.72;100.00
69751;BME280;57335;52.288;6.056;2023-02-23T01:40:07;101296.34;;;7.70;100.00
69751;BME280;57335;52.288;6.056;2023-02-23T01:42:37;101297.13;;;7.70;100.00
69751;BME280;57335;52.288;6.056;2023-02-23T01:47:54;101288.66;;;7.68;100.00
69751;BME280;57335;52.288;6.056;2023-02-23T01:50:23;101293.88;;;7.68;100.00
69751;BME280;57335;52.288;6.056;2023-02-23T01:52:51;101291.91;;;7.70;100.00
69751;BME280;57335;52.288;6.056;2023-02-23T01:55:20;101297.13;;;7.70;100.00
69751;BME280;57335;52.288;6.056;2023-02-23T01:57:47;101291.28;;;7.68;100.00
69751;BME280;57335;52.288;6.056;2023-02-23T02:00:13;101291.13;;;7.70;100.00
69751;BME280;57335;52.288;6.056;2023-02-23T02:02:40;101293.53;;;7.71;100.00
69751;BME280;57335;52.288;6.056;2023-02-23T02:05:07;101289.81;;;7.66;100.00
69751;BME280;57335;52.288;6.056;2023-02-23T02:07:33;101293.09;;;7.68;100.00
69751;BME280;57335;52.288;6.056;2023-02-23T02:10:00;101288.38;;;7.63;100.00
69751;BME280;57335;52.288;6.056;2023-02-23T02:12:27;101291.78;;;7.64;100.00
69751;BME280;57335;52.288;6.056;2023-02-23T02:14:55;101288.38;;;7.63;100.00
69751;BME280;57335;52.288;6.056;2023-02-23T02:26:06;101289.72;;;7.59;100.00
69751;BME280;57335;52.288;6.056;2023-02-23T02:31:43;101295.72;;;7.59;100.00
69751;BME280;57335;52.288;6.056;2023-02-23T02:34:26;101293.59;;;7.63;100.00
69751;BME280;57335;52.288;6.056;2023-02-23T02:42:39;101290.34;;;7.61;100.00
69751;BME280;57335;52.288;6.056;2023-02-23T02:45:25;101285.59;;;7.65;100.00
69751;BME280;57335;52.288;6.056;2023-02-23T02:47:58;101290.66;;;7.66;100.00
69751;BME280;57335;52.288;6.056;2023-02-23T02:53:07;101287.88;;;7.68;100.00
69751;BME280;57335;52.288;6.056;2023-02-23T02:55:36;101284.78;;;7.64;100.00
69751;BME280;57335;52.288;6.056;2023-02-23T02:58:05;101286.56;;;7.64;100.00
69751;BME280;57335;52.288;6.056;2023-02-23T03:00:39;101286.56;;;7.64;100.00
69751;BME280;57335;52.288;6.056;2023-02-23T03:03:26;101281.72;;;7.61;100.00
69751;BME280;57335;52.288;6.056;2023-02-23T03:05:53;101286.13;;;7.60;100.00
69751;BME280;57335;52.288;6.056;2023-02-23T03:11:06;101283.16;;;7.63;100.00
69751;BME280;57335;52.288;6.056;2023-02-23T03:19:33;101289.06;;;7.57;100.00
69751;BME280;57335;52.288;6.056;2023-02-23T03:22:24;101293.03;;;7.53;100.00
69751;BME280;57335;52.288;6.056;2023-02-23T03:25:00;101289.78;;;7.51;100.00
69751;BME280;57335;52.288;6.056;2023-02-23T03:28:09;101291.41;;;7.52;100.00
69751;BME280;57335;52.288;6.056;2023-02-23T03:33:15;101295.78;;;7.51;100.00
69751;BME280;57335;52.288;6.056;2023-02-23T03:41:14;101298.94;;;7.47;100.00
69751;BME280;57335;52.288;6.056;2023-02-23T03:43:51;101294.06;;;7.44;100.00
69751;BME280;57335;52.288;6.056;2023-02-23T03:46:21;101298.28;;;7.45;100.00
69751;BME280;57335;52.288;6.056;2023-02-23T03:48:52;101300.75;;;7.46;100.00
69751;BME280;57335;52.288;6.056;2023-02-23T03:51:22;101302.72;;;7.44;100.00
69751;BME280;57335;52.288;6.056;2023-02-23T03:53:58;101298.94;;;7.47;100.00
69751;BME280;57335;52.288;6.056;2023-02-23T03:56:27;101306.59;;;7.48;100.00
69751;BME280;57335;52.288;6.056;2023-02-23T03:58:58;101308.19;;;7.49;100.00
69751;BME280;57335;52.288;6.056;2023-02-23T04:01:26;101318.81;;;7.48;100.00
69751;BME280;57335;52.288;6.056;2023-02-23T04:03:54;101309.53;;;7.45;100.00
69751;BME280;57335;52.288;6.056;2023-02-23T04:06:25;101310.38;;;7.46;100.00
69751;BME280;57335;52.288;6.056;2023-02-23T04:08:55;101313.13;;;7.44;100.00
69751;BME280;57335;52.288;6.056;2023-02-23T04:14:00;101316.44;;;7.38;100.00
69751;BME280;57335;52.288;6.056;2023-02-23T04:16:29;101315.81;;;7.36;100.00
69751;BME280;57335;52.288;6.056;2023-02-23T04:18:57;101316.94;;;7.33;100.00
69751;BME280;57335;52.288;6.056;2023-02-23T04:21:24;101316.28;;;7.31;100.00
69751;BME280;57335;52.288;6.056;2023-02-23T04:23:50;101324.94;;;7.32;100.00
69751;BME280;57335;52.288;6.056;2023-02-23T04:26:17;101314.69;;;7.30;100.00
69751;BME280;57335;52.288;6.056;2023-02-23T04:28:43;101324.13;;;7.31;100.00
69751;BME280;57335;52.288;6.056;2023-02-23T04:31:09;101320.88;;;7.29;100.00
69751;BME280;57335;52.288;6.056;2023-02-23T04:33:36;101312.88;;;7.31;100.00
69751;BME280;57335;52.288;6.056;2023-02-23T04:36:02;101324.13;;;7.31;100.00
69751;BME280;57335;52.288;6.056;2023-02-23T04:38:29;101325.94;;;7.31;100.00
69751;BME280;57335;52.288;6.056;2023-02-23T04:40:55;101321.50;;;7.31;100.00
69751;BME280;57335;52.288;6.056;2023-02-23T04:43:22;101324.13;;;7.31;100.00
69751;BME280;57335;52.288;6.056;2023-02-23T04:45:48;101322.69;;;7.29;100.00
69751;BME280;57335;52.288;6.056;2023-02-23T04:48:14;101324.47;;;7.28;100.00
69751;BME280;57335;52.288;6.056;2023-02-23T04:50:41;101329.69;;;7.28;100.00
69751;BME280;57335;52.288;6.056;2023-02-23T04:53:07;101329.69;;;7.28;100.00
69751;BME280;57335;52.288;6.056;2023-02-23T04:55:34;101324.81;;;7.25;100.00
69751;BME280;57335;52.288;6.056;2023-02-23T04:58:00;101330.84;;;7.26;100.00
69751;BME280;57335;52.288;6.056;2023-02-23T05:00:27;101340.13;;;7.28;100.00
69751;BME280;57335;52.288;6.056;2023-02-23T05:02:55;101337.69;;;7.27;100.00
69751;BME280;57335;52.288;6.056;2023-02-23T05:05:21;101329.06;;;7.26;100.00
69751;BME280;57335;52.288;6.056;2023-02-23T05:07:48;101336.88;;;7.26;100.00
69751;BME280;57335;52.288;6.056;2023-02-23T05:10:14;101335.25;;;7.25;100.00
69751;BME280;57335;52.288;6.056;2023-02-23T05:12:41;101340.44;;;7.25;100.00
69751;BME280;57335;52.288;6.056;2023-02-23T05:15:07;101331.19;;;7.23;100.00
69751;BME280;57335;52.288;6.056;2023-02-23T05:17:34;101336.25;;;7.24;100.00
69751;BME280;57335;52.288;6.056;2023-02-23T05:20:03;101340.44;;;7.25;100.00
69751;BME280;57335;52.288;6.056;2023-02-23T05:22:29;101353.50;;;7.25;100.00
69751;BME280;57335;52.288;6.056;2023-02-23T05:24:55;101342.41;;;7.23;100.00
69751;BME280;57335;52.288;6.056;2023-02-23T05:27:22;101357.09;;;7.24;100.00
69751;BME280;57335;52.288;6.056;2023-02-23T05:29:49;101349.59;;;7.21;100.00
69751;BME280;57335;52.288;6.056;2023-02-23T05:32:15;101360.84;;;7.22;100.00
69751;BME280;57335;52.288;6.056;2023-02-23T05:34:42;101353.38;;;7.18;100.00
69751;BME280;57335;52.288;6.056;2023-02-23T05:37:08;101354.16;;;7.19;100.00
69751;BME280;57335;52.288;6.056;2023-02-23T05:39:34;101364.59;;;7.19;100.00
69751;BME280;57335;52.288;6.056;2023-02-23T05:42:01;101368.19;;;7.18;100.00
69751;BME280;57335;52.288;6.056;2023-02-23T05:44:27;101361.19;;;7.18;100.00
69751;BME280;57335;52.288;6.056;2023-02-23T05:46:53;101362.16;;;7.17;100.00
69751;BME280;57335;52.288;6.056;2023-02-23T05:49:20;101365.59;;;7.18;100.00
69751;BME280;57335;52.288;6.056;2023-02-23T05:51:46;101360.38;;;7.18;100.00
69751;BME280;57335;52.288;6.056;2023-02-23T05:54:13;101352.88;;;7.15;100.00
69751;BME280;57335;52.288;6.056;2023-02-23T05:56:40;101353.69;;;7.15;100.00
69751;BME280;57335;52.288;6.056;2023-02-23T05:59:07;101352.09;;;7.14;100.00
69751;BME280;57335;52.288;6.056;2023-02-23T06:01:33;101369.97;;;7.17;100.00
69751;BME280;57335;52.288;6.056;2023-02-23T06:03:59;101370.81;;;7.18;100.00
69751;BME280;57335;52.288;6.056;2023-02-23T06:06:26;101375.19;;;7.17;100.00
69751;BME280;57335;52.288;6.056;2023-02-23T06:08:52;101366.72;;;7.15;100.00
69751;BME280;57335;52.288;6.056;2023-02-23T06:11:19;101371.94;;;7.15;100.00
69751;BME280;57335;52.288;6.056;2023-02-23T06:13:46;101377.00;;;7.17;100.00
69751;BME280;57335;52.288;6.056;2023-02-23T06:16:12;101379.59;;;7.17;100.00
69751;BME280;57335;52.288;6.056;2023-02-23T06:18:39;101378.97;;;7.15;100.00
69751;BME280;57335;52.288;6.056;2023-02-23T06:21:06;101384.97;;;7.15;100.00
69751;BME280;57335;52.288;6.056;2023-02-23T06:23:32;101387.41;;;7.17;100.00
69751;BME280;57335;52.288;6.056;2023-02-23T06:25:59;101391.81;;;7.16;100.00
69751;BME280;57335;52.288;6.056;2023-02-23T06:28:26;101397.69;;;7.18;100.00
69751;BME280;57335;52.288;6.056;2023-02-23T06:30:54;101396.22;;;7.16;100.00
69751;BME280;57335;52.288;6.056;2023-02-23T06:33:22;101396.03;;;7.17;100.00
69751;BME280;57335;52.288;6.056;2023-02-23T06:35:48;101394.44;;;7.16;100.00
69751;BME280;57335;52.288;6.056;2023-02-23T06:38:15;101403.69;;;7.19;100.00
69751;BME280;57335;52.288;6.056;2023-02-23T06:40:42;101404.69;;;7.18;100.00
69751;BME280;57335;52.288;6.056;2023-02-23T06:43:08;101403.88;;;7.17;100.00
69751;BME280;57335;52.288;6.056;2023-02-23T06:45:35;101398.84;;;7.16;100.00
69751;BME280;57335;52.288;6.056;2023-02-23T06:48:01;101400.44;;;7.17;100.00
69751;BME280;57335;52.288;6.056;2023-02-23T06:50:28;101408.28;;;7.17;100.00
69751;BME280;57335;52.288;6.056;2023-02-23T06:52:54;101414.13;;;7.19;100.00
69751;BME280;57335;52.288;6.056;2023-02-23T06:55:21;101410.88;;;7.17;100.00
69751;BME280;57335;52.288;6.056;2023-02-23T06:57:48;101413.47;;;7.17;100.00
69751;BME280;57335;52.288;6.056;2023-02-23T07:00:15;101412.03;;;7.14;100.00
69751;BME280;57335;52.288;6.056;2023-02-23T07:02:42;101426.53;;;7.17;100.00
69751;BME280;57335;52.288;6.056;2023-02-23T07:05:09;101425.72;;;7.16;100.00
69751;BME280;57335;52.288;6.056;2023-02-23T07:07:36;101427.31;;;7.17;100.00
69751;BME280;57335;52.288;6.056;2023-02-23T07:10:04;101424.56;;;7.19;100.00
69751;BME280;57335;52.288;6.056;2023-02-23T07:12:31;101431.56;;;7.18;100.00
69751;BME280;57335;52.288;6.056;2023-02-23T07:14:57;101428.97;;;7.18;100.00
69751;BME280;57335;52.288;6.056;2023-02-23T07:17:24;101434.66;;;7.22;100.00
69751;BME280;57335;52.288;6.056;2023-02-23T07:19:50;101438.22;;;7.21;100.00
69751;BME280;57335;52.288;6.056;2023-02-23T07:22:17;101429.78;;;7.19;100.00
69751;BME280;57335;52.288;6.056;2023-02-23T07:24:43;101439.72;;;7.24;100.00
69751;BME280;57335;52.288;6.056;2023-02-23T07:27:09;101444.41;;;7.28;100.00
69751;BME280;57335;52.288;6.056;2023-02-23T07:29:35;101453.84;;;7.29;100.00
69751;BME280;57335;52.288;6.056;2023-02-23T07:32:02;101456.44;;;7.29;100.00
69751;BME280;57335;52.288;6.056;2023-02-23T07:34:29;101449.63;;;7.28;100.00
69751;BME280;57335;52.288;6.056;2023-02-23T07:36:55;101454.69;;;7.30;100.00
69751;BME280;57335;52.288;6.056;2023-02-23T07:39:21;101457.28;;;7.30;100.00
69751;BME280;57335;52.288;6.056;2023-02-23T07:41:48;101458.91;;;7.31;100.00
69751;BME280;57335;52.288;6.056;2023-02-23T07:44:17;101463.13;;;7.32;100.00
69751;BME280;57335;52.288;6.056;2023-02-23T07:46:43;101461.34;;;7.32;100.00
69751;BME280;57335;52.288;6.056;2023-02-23T07:49:09;101467.84;;;7.36;100.00
69751;BME280;57335;52.288;6.056;2023-02-23T07:51:37;101464.59;;;7.34;100.00
69751;BME280;57335;52.288;6.056;2023-02-23T07:54:04;101470.44;;;7.36;100.00
69751;BME280;57335;52.288;6.056;2023-02-23T07:56:31;101473.84;;;7.37;100.00
69751;BME280;57335;52.288;6.056;2023-02-23T07:58:58;101477.91;;;7.39;100.00
69751;BME280;57335;52.288;6.056;2023-02-23T08:01:25;101467.47;;;7.39;100.00
69751;BME280;57335;52.288;6.056;2023-02-23T08:03:51;101474.34;;;7.41;100.00
69751;BME280;57335;52.288;6.056;2023-02-23T08:06:18;101471.09;;;7.38;100.00
69751;BME280;57335;52.288;6.056;2023-02-23T08:08:45;101479.19;;;7.44;100.00
69751;BME280;57335;52.288;6.056;2023-02-23T08:11:11;101482.47;;;7.46;100.00
69751;BME280;57335;52.288;6.056;2023-02-23T08:13:38;101482.28;;;7.47;100.00
69751;BME280;57335;52.288;6.056;2023-02-23T08:16:04;101485.53;;;7.49;100.00
69751;BME280;57335;52.288;6.056;2023-02-23T08:18:31;101488.78;;;7.51;100.00
69751;BME280;57335;52.288;6.056;2023-02-23T08:20:59;101486.66;;;7.55;100.00
69751;BME280;57335;52.288;6.056;2023-02-23T08:23:28;101487.16;;;7.58;100.00
69751;BME280;57335;52.288;6.056;2023-02-23T08:25:55;101495.63;;;7.61;100.00
69751;BME280;57335;52.288;6.056;2023-02-23T08:28:21;101488.75;;;7.59;100.00
69751;BME280;57335;52.288;6.056;2023-02-23T08:30:48;101492.00;;;7.62;100.00
69751;BME280;57335;52.288;6.056;2023-02-23T08:33:14;101492.84;;;7.62;100.00
69751;BME280;57335;52.288;6.056;2023-02-23T08:35:40;101494.44;;;7.63;100.00
69751;BME280;57335;52.288;6.056;2023-02-23T08:38:07;101495.09;;;7.65;100.00
69751;BME280;57335;52.288;6.056;2023-02-23T08:40:33;101504.41;;;7.68;100.00
69751;BME280;57335;52.288;6.056;2023-02-23T08:43:00;101506.66;;;7.71;100.00
69751;BME280;57335;52.288;6.056;2023-02-23T08:45:26;101505.69;;;7.72;100.00
69751;BME280;57335;52.288;6.056;2023-02-23T08:47:53;101512.34;;;7.74;100.00
69751;BME280;57335;52.288;6.056;2023-02-23T08:50:20;101522.44;;;7.77;100.00
69751;BME280;57335;52.288;6.056;2023-02-23T08:52:47;101519.81;;;7.77;100.00
69751;BME280;57335;52.288;6.056;2023-02-23T08:55:13;101517.84;;;7.79;100.00
69751;BME280;57335;52.288;6.056;2023-02-23T08:57:40;101523.72;;;7.82;100.00
69751;BME280;57335;52.288;6.056;2023-02-23T09:00:07;101526.16;;;7.83;100.00
69751;BME280;57335;52.288;6.056;2023-02-23T09:02:33;101531.84;;;7.87;100.00
69751;BME280;57335;52.288;6.056;2023-02-23T09:05:00;101526.81;;;7.85;100.00
69751;BME280;57335;52.288;6.056;2023-02-23T09:07:26;101524.50;;;7.90;100.00
69751;BME280;57335;52.288;6.056;2023-02-23T09:09:56;101523.50;;;7.91;100.00
69751;BME280;57335;52.288;6.056;2023-02-23T09:12:23;101525.94;;;7.93;100.00
69751;BME280;57335;52.288;6.056;2023-02-23T09:14:50;101520.72;;;7.93;100.00
69751;BME280;57335;52.288;6.056;2023-02-23T09:17:17;101527.22;;;7.97;100.00
69751;BME280;57335;52.288;6.056;2023-02-23T09:19:43;101526.91;;;8.00;100.00
69751;BME280;57335;52.288;6.056;2023-02-23T09:22:10;101534.03;;;8.06;100.00
69751;BME280;57335;52.288;6.056;2023-02-23T09:24:36;101526.84;;;8.08;100.00
69751;BME280;57335;52.288;6.056;2023-02-23T09:27:03;101534.53;;;8.10;100.00
69751;BME280;57335;52.288;6.056;2023-02-23T09:29:30;101535.31;;;8.10;100.00
69751;BME280;57335;52.288;6.056;2023-02-23T09:31:56;101543.97;;;8.11;100.00
69751;BME280;57335;52.288;6.056;2023-02-23T09:34:23;101539.69;;;8.18;100.00
69751;BME280;57335;52.288;6.056;2023-02-23T09:36:50;101539.00;;;8.24;100.00
69751;BME280;57335;52.288;6.056;2023-02-23T09:39:16;101541.38;;;8.34;100.00
69751;BME280;57335;52.288;6.056;2023-02-23T09:41:59;101545.56;;;8.43;100.00
69751;BME280;57335;52.288;6.056;2023-02-23T09:44:49;101551.75;;;8.50;100.00
69751;BME280;57335;52.288;6.056;2023-02-23T09:49:54;101554.22;;;8.67;100.00
69751;BME280;57335;52.288;6.056;2023-02-23T09:52:44;101552.88;;;8.71;100.00
69751;BME280;57335;52.288;6.056;2023-02-23T09:55:13;101553.19;;;8.76;100.00
69751;BME280;57335;52.288;6.056;2023-02-23T09:57:43;101543.69;;;8.75;100.00
69751;BME280;57335;52.288;6.056;2023-02-23T10:00:23;101550.03;;;8.81;100.00
69751;BME280;57335;52.288;6.056;2023-02-23T10:05:30;101544.00;;;8.80;100.00
69751;BME280;57335;52.288;6.056;2023-02-23T10:08:06;101553.28;;;8.83;100.00
69751;BME280;57335;52.288;6.056;2023-02-23T10:10:44;101549.22;;;8.80;100.00
69751;BME280;57335;52.288;6.056;2023-02-23T10:13:39;101544.34;;;8.77;100.00
69751;BME280;57335;52.288;6.056;2023-02-23T10:18:52;101555.34;;;8.87;100.00
69751;BME280;57335;52.288;6.056;2023-02-23T10:21:27;101552.41;;;8.90;100.00
69751;BME280;57335;52.288;6.056;2023-02-23T10:23:59;101536.44;;;8.85;100.00
69751;BME280;57335;52.288;6.056;2023-02-23T10:26:34;101555.91;;;8.97;100.00
69751;BME280;57335;52.288;6.056;2023-02-23T10:29:03;101562.06;;;9.05;100.00
69751;BME280;57335;52.288;6.056;2023-02-23T10:31:44;101562.88;;;9.05;100.00
69751;BME280;57335;52.288;6.056;2023-02-23T10:34:16;101561.69;;;9.08;100.00
69751;BME280;57335;52.288;6.056;2023-02-23T10:39:13;101570.00;;;9.11;100.00
69751;BME280;57335;52.288;6.056;2023-02-23T10:41:40;101564.16;;;9.09;100.00
69751;BME280;57335;52.288;6.056;2023-02-23T10:44:17;101573.44;;;9.12;100.00
69751;BME280;57335;52.288;6.056;2023-02-23T10:46:49;101567.56;;;9.10;100.00
69751;BME280;57335;52.288;6.056;2023-02-23T10:49:20;101573.34;;;9.05;100.00
69751;BME280;57335;52.288;6.056;2023-02-23T10:51:48;101568.66;;;9.01;100.00
69751;BME280;57335;52.288;6.056;2023-02-23T10:54:34;101575.69;;;9.00;100.00
69751;BME280;57335;52.288;6.056;2023-02-23T10:57:02;101574.38;;;8.96;100.00
69751;BME280;57335;52.288;6.056;2023-02-23T10:59:30;101578.81;;;8.95;100.00
69751;BME280;57335;52.288;6.056;2023-02-23T11:01:57;101582.78;;;8.91;100.00
69751;BME280;57335;52.288;6.056;2023-02-23T11:04:30;101584.75;;;8.89;100.00
69751;BME280;57335;52.288;6.056;2023-02-23T11:07:15;101592.13;;;8.86;100.00
69751;BME280;57335;52.288;6.056;2023-02-23T11:09:43;101598.69;;;8.82;100.00
69751;BME280;57335;52.288;6.056;2023-02-23T11:12:20;101586.16;;;8.77;100.00
69751;BME280;57335;52.288;6.056;2023-02-23T11:14:49;101593.53;;;8.73;100.00
69751;BME280;57335;52.288;6.056;2023-02-23T11:17:36;101589.63;;;8.69;100.00
69751;BME280;57335;52.288;6.056;2023-02-23T11:20:19;101588.09;;;8.60;100.00
69751;BME280;57335;52.288;6.056;2023-02-23T11:22:49;101587.94;;;8.53;100.00
69751;BME280;57335;52.288;6.056;2023-02-23T11:25:28;101589.66;;;8.46;100.00
69751;BME280;57335;52.288;6.056;2023-02-23T11:27:56;101593.41;;;8.35;100.00
69751;BME280;57335;52.288;6.056;2023-02-23T11:30:27;101592.63;;;8.35;100.00
69751;BME280;57335;52.288;6.056;2023-02-23T11:32:58;101592.13;;;8.31;100.00
69751;BME280;57335;52.288;6.056;2023-02-23T11:35:28;101587.44;;;8.27;100.00
69751;BME280;57335;52.288;6.056;2023-02-23T11:37:55;101592.75;;;8.10;100.00
69751;BME280;57335;52.288;6.056;2023-02-23T11:40:33;101600.63;;;8.02;100.00
69751;BME280;57335;52.288;6.056;2023-02-23T11:43:15;101599.44;;;8.13;100.00
69751;BME280;57335;52.288;6.056;2023-02-23T11:45:50;101593.22;;;8.14;100.00
69751;BME280;57335;52.288;6.056;2023-02-23T11:48:45;101589.63;;;8.15;100.00
69751;BME280;57335;52.288;6.056;2023-02-23T11:51:23;101590.09;;;8.18;100.00
69751;BME280;57335;52.288;6.056;2023-02-23T11:53:50;101592.50;;;8.28;100.00
69751;BME280;57335;52.288;6.056;2023-02-23T11:56:21;101593.94;;;8.31;100.00
69751;BME280;57335;52.288;6.056;2023-02-23T11:58:51;101595.06;;;8.36;100.00
69751;BME280;57335;52.288;6.056;2023-02-23T12:01:46;101594.22;;;8.44;100.00
69751;BME280;57335;52.288;6.056;2023-02-23T12:04:33;101589.03;;;8.36;100.00
69751;BME280;57335;52.288;6.056;2023-02-23T12:09:51;101585.00;;;8.25;100.00
69751;BME280;57335;52.288;6.056;2023-02-23T12:12:23;101589.09;;;8.19;100.00
69751;BME280;57335;52.288;6.056;2023-02-23T12:14:57;101585.63;;;8.04;100.00
69751;BME280;57335;52.288;6.056;2023-02-23T12:17:34;101594.75;;;8.00;100.00
69751;BME280;57335;52.288;6.056;2023-02-23T12:22:50;101599.66;;;7.95;100.00
69751;BME280;57335;52.288;6.056;2023-02-23T12:25:24;101598.50;;;7.97;100.00
69751;BME280;57335;52.288;6.056;2023-02-23T12:30:49;101588.88;;;8.06;100.00
69751;BME280;57335;52.288;6.056;2023-02-23T12:33:39;101594.22;;;8.13;100.00
69751;BME280;57335;52.288;6.056;2023-02-23T12:36:25;101599.69;;;8.26;100.00
69751;BME280;57335;52.288;6.056;2023-02-23T12:38:59;101595.88;;;8.37;100.00
69751;BME280;57335;52.288;6.056;2023-02-23T12:41:37;101596.34;;;8.41;100.00
69751;BME280;57335;52.288;6.056;2023-02-23T12:46:46;101608.91;;;8.45;100.00
69751;BME280;57335;52.288;6.056;2023-02-23T12:49:24;101604.03;;;8.42;100.00
69751;BME280;57335;52.288;6.056;2023-02-23T12:51:59;101609.28;;;8.42;100.00
69751;BME280;57335;52.288;6.056;2023-02-23T12:54:27;101601.72;;;8.47;100.00
69751;BME280;57335;52.288;6.056;2023-02-23T12:57:06;101609.50;;;8.55;100.00
69751;BME280;57335;52.288;6.056;2023-02-23T13:02:43;101615.03;;;8.61;100.00
69751;BME280;57335;52.288;6.056;2023-02-23T13:05:30;101606.00;;;8.63;100.00
69751;BME280;57335;52.288;6.056;2023-02-23T13:08:46;101607.75;;;8.71;100.00
69751;BME280;57335;52.288;6.056;2023-02-23T13:11:25;101603.50;;;8.70;100.00
69751;BME280;57335;52.288;6.056;2023-02-23T13:13:55;101604.84;;;8.66;100.00
69751;BME280;57335;52.288;6.056;2023-02-23T13:21:32;101597.59;;;8.53;100.00
69751;BME280;57335;52.288;6.056;2023-02-23T13:24:11;101590.47;;;8.47;100.00
69751;BME280;57335;52.288;6.056;2023-02-23T13:27:15;101596.84;;;8.44;100.00
69751;BME280;57335;52.288;6.056;2023-02-23T13:29:47;101584.19;;;8.25;100.00
69751;BME280;57335;52.288;6.056;2023-02-23T13:32:20;101574.72;;;8.24;100.00
69751;BME280;57335;52.288;6.056;2023-02-23T13:35:00;101585.81;;;8.26;100.00
69751;BME280;57335;52.288;6.056;2023-02-23T13:37:30;101586.00;;;8.24;100.00
69751;BME280;57335;52.288;6.056;2023-02-23T13:49:42;101596.34;;;8.41;100.00
69751;BME280;57335;52.288;6.056;2023-02-23T13:51:55;101596.31;;;8.49;100.00
69751;BME280;57335;52.288;6.056;2023-02-23T13:54:30;101604.97;;;8.49;100.00
69751;BME280;57335;52.288;6.056;2023-02-23T13:56:59;101603.16;;;8.50;100.00
69751;BME280;57335;52.288;6.056;2023-02-23T13:59:36;101608.22;;;8.51;100.00
69751;BME280;57335;52.288;6.056;2023-02-23T14:02:35;101606.00;;;8.40;100.00
69751;BME280;57335;52.288;6.056;2023-02-23T14:05:23;101612.53;;;8.36;100.00
69751;BME280;57335;52.288;6.056;2023-02-23T14:07:53;101605.03;;;8.33;100.00
69751;BME280;57335;52.288;6.056;2023-02-23T14:10:23;101615.78;;;8.38;100.00
69751;BME280;57335;52.288;6.056;2023-02-23T14:32:01;101588.88;;;8.06;100.00
69751;BME280;57335;52.288;6.056;2023-02-23T14:34:52;101591.81;;;8.03;100.00
69751;BME280;57335;52.288;6.056;2023-02-23T14:37:33;101587.56;;;8.02;100.00
69751;BME280;57335;52.288;6.056;2023-02-23T14:40:13;101588.50;;;8.09;100.00
69751;BME280;57335;52.288;6.056;2023-02-23T14:42:48;101588.50;;;8.09;100.00
69751;BME280;57335;52.288;6.056;2023-02-23T14:45:18;101590.16;;;8.10;100.00
69751;BME280;57335;52.288;6.056;2023-02-23T14:47:49;101591.47;;;8.06;100.00